Highland-University Park's Hourly Summary for Sunday, May 13, 2018
Hour Temp
(f)
RH
(%)
Solar Rad.
(MJ/m2)
Rainfall
(in)
Wind
(mph)
5/13/2018 12:00 AM 78 62 0 0 2.47
5/13/2018 1:00 AM 77 68 0 0 2.99
5/13/2018 2:00 AM 76 72 0 0 2.9
5/13/2018 3:00 AM 75 77 0 0 2.41
5/13/2018 4:00 AM 75 79 0 0 2.37
5/13/2018 5:00 AM 74 81 0 0 2.03
5/13/2018 6:00 AM 73 84 0 0 1.93
5/13/2018 7:00 AM 72 84 0.01 0 1.23
5/13/2018 8:00 AM 72 82 0.14 0 1.05
5/13/2018 9:00 AM 74 76 0.43 0 1.68
5/13/2018 10:00 AM 78 63 1.57 0 1.81
5/13/2018 11:00 AM 80 63 1.13 0 2.38
5/13/2018 12:00 PM 82 57 1.88 0 2.13
5/13/2018 1:00 PM 85 50 2.89 0 2.86
5/13/2018 2:00 PM 86 49 2.59 0 3.02
5/13/2018 3:00 PM 87 45 2.37 0 3.43
5/13/2018 4:00 PM 88 43 2.49 0 3.17
5/13/2018 5:00 PM 90 41 2.17 0 2.84
5/13/2018 6:00 PM 89 42 1.43 0 3.11
5/13/2018 7:00 PM 87 45 0.84 0 3.71
5/13/2018 8:00 PM 85 48 0.15 0 3.01
5/13/2018 9:00 PM 83 54 0.01 0 1.97
5/13/2018 10:00 PM 81 58 0 0 2.43
5/13/2018 11:00 PM 80 62 0 0 2.76
Data Summary 80 61 20.10 0.00 2.49